createdAt,value
2019-03-29T00:02:07.526Z,9.88
2019-03-29T00:04:40.030Z,9.83
2019-03-29T00:07:12.448Z,9.77
2019-03-29T00:09:43.312Z,9.79
2019-03-29T00:12:15.420Z,9.78
2019-03-29T00:14:46.213Z,9.84
2019-03-29T00:17:17.924Z,9.76
2019-03-29T00:19:48.985Z,9.93
2019-03-29T00:22:19.379Z,9.84
2019-03-29T00:24:50.248Z,9.82
2019-03-29T00:27:21.023Z,9.78
2019-03-29T00:29:51.786Z,9.80
2019-03-29T00:32:22.583Z,9.80
2019-03-29T00:34:53.084Z,9.79
2019-03-29T00:37:23.915Z,9.72
2019-03-29T00:39:56.489Z,9.92
2019-03-29T00:42:27.334Z,9.76
2019-03-29T00:44:58.142Z,9.79
2019-03-29T00:47:29.380Z,9.83
2019-03-29T00:50:03.584Z,9.84
2019-03-29T00:52:34.333Z,9.79
2019-03-29T00:55:09.621Z,9.78
2019-03-29T00:57:40.430Z,9.88
2019-03-29T01:00:11.371Z,9.80
2019-03-29T01:02:41.935Z,9.78
2019-03-29T01:05:14.283Z,9.82
2019-03-29T01:07:45.209Z,9.76
2019-03-29T01:10:16.907Z,9.80
2019-03-29T01:12:47.751Z,9.78
2019-03-29T01:15:18.577Z,9.87
2019-03-29T01:17:49.127Z,9.80
2019-03-29T01:20:20.006Z,9.83
2019-03-29T01:22:50.748Z,9.91
2019-03-29T01:25:23.427Z,9.87
2019-03-29T01:27:54.167Z,9.92
2019-03-29T01:30:24.847Z,9.94
2019-03-29T01:32:55.645Z,9.90
2019-03-29T01:35:26.516Z,9.90
2019-03-29T01:37:57.183Z,9.92
2019-03-29T01:40:28.059Z,9.94
2019-03-29T01:42:58.915Z,10.01
2019-03-29T01:45:31.400Z,9.94
2019-03-29T01:48:02.195Z,9.94
2019-03-29T01:50:33.111Z,9.96
2019-03-29T01:53:03.854Z,10.06
2019-03-29T01:55:34.791Z,10.08
2019-03-29T01:58:05.564Z,10.02
2019-03-29T02:00:36.600Z,9.89
2019-03-29T02:03:07.336Z,9.95
2019-03-29T02:05:38.229Z,9.90
2019-03-29T02:08:08.973Z,9.89
2019-03-29T02:10:39.729Z,9.88
2019-03-29T02:13:10.702Z,9.96
2019-03-29T02:15:41.580Z,9.94
2019-03-29T02:18:12.310Z,9.98
2019-03-29T02:20:43.346Z,9.99
2019-03-29T02:23:14.022Z,9.88
2019-03-29T02:25:44.828Z,9.88
2019-03-29T02:28:15.621Z,9.88
2019-03-29T02:30:49.197Z,9.95
2019-03-29T02:33:20.816Z,9.92
2019-03-29T02:35:52.055Z,9.90
2019-03-29T02:38:23.746Z,9.98
2019-03-29T02:40:55.157Z,10.06
2019-03-29T02:43:25.941Z,9.96
2019-03-29T02:45:57.851Z,9.97
2019-03-29T02:48:29.336Z,9.98
2019-03-29T02:51:00.070Z,10.10
2019-03-29T02:53:30.591Z,10.06
2019-03-29T02:56:03.972Z,10.06
2019-03-29T02:58:34.935Z,9.97
2019-03-29T03:01:05.893Z,9.95
2019-03-29T03:03:36.727Z,9.96
2019-03-29T03:06:07.548Z,9.90
2019-03-29T03:08:38.440Z,9.91
2019-03-29T03:11:09.355Z,9.93
2019-03-29T03:13:40.306Z,9.91
2019-03-29T03:16:12.886Z,10.01
2019-03-29T03:18:43.999Z,10.02
2019-03-29T03:21:14.896Z,10.00
2019-03-29T03:23:45.747Z,9.92
2019-03-29T03:26:17.608Z,9.98
2019-03-29T03:28:48.465Z,10.00
2019-03-29T03:31:19.469Z,9.94
2019-03-29T03:33:50.339Z,9.90
2019-03-29T03:36:21.179Z,9.95
2019-03-29T03:38:52.083Z,9.88
2019-03-29T03:41:24.597Z,9.95
2019-03-29T03:43:55.298Z,9.87
2019-03-29T03:46:26.789Z,9.90
2019-03-29T03:48:57.261Z,9.88
2019-03-29T03:51:28.251Z,9.93
2019-03-29T03:53:59.157Z,9.96
2019-03-29T03:56:31.465Z,9.96
2019-03-29T03:59:03.155Z,9.84
2019-03-29T04:01:34.071Z,9.93
2019-03-29T04:04:04.908Z,9.86
2019-03-29T04:06:38.481Z,9.90
2019-03-29T04:09:08.923Z,9.89
2019-03-29T04:11:39.530Z,9.88
2019-03-29T04:14:10.371Z,9.86
2019-03-29T04:16:40.798Z,9.84
2019-03-29T04:19:11.271Z,9.85
2019-03-29T04:21:42.059Z,9.90
2019-03-29T04:24:12.993Z,9.88
2019-03-29T04:26:43.930Z,9.92
2019-03-29T04:29:14.389Z,9.91
2019-03-29T04:31:46.728Z,9.92
2019-03-29T04:34:17.562Z,10.00
2019-03-29T04:36:48.705Z,9.96
2019-03-29T04:39:19.540Z,9.96
2019-03-29T04:41:50.280Z,9.94
2019-03-29T04:44:22.545Z,9.98
2019-03-29T04:46:53.433Z,10.08
2019-03-29T04:49:24.348Z,10.01
2019-03-29T04:51:55.185Z,10.04
2019-03-29T04:54:25.639Z,10.02
2019-03-29T04:56:56.442Z,9.96
2019-03-29T04:59:27.345Z,9.97
2019-03-29T05:01:58.202Z,9.92
2019-03-29T05:04:28.982Z,9.95
2019-03-29T05:06:59.792Z,10.05
2019-03-29T05:09:30.506Z,9.98
2019-03-29T05:12:01.464Z,10.00
2019-03-29T05:14:31.973Z,10.10
2019-03-29T05:17:02.812Z,9.96
2019-03-29T05:19:33.647Z,9.90
2019-03-29T05:22:04.626Z,10.04
2019-03-29T05:24:35.418Z,9.98
2019-03-29T05:27:06.376Z,9.96
2019-03-29T05:29:37.364Z,9.96
2019-03-29T05:32:08.255Z,10.02
2019-03-29T05:34:39.116Z,9.98
2019-03-29T05:37:09.907Z,10.00
2019-03-29T05:39:40.795Z,10.00
2019-03-29T05:42:12.010Z,10.01
2019-03-29T05:44:42.849Z,9.98
2019-03-29T05:47:16.267Z,10.04
2019-03-29T05:49:47.082Z,10.10
2019-03-29T05:52:17.744Z,10.11
2019-03-29T05:54:48.756Z,10.06
2019-03-29T05:57:19.531Z,10.06
2019-03-29T05:59:52.728Z,10.14
2019-03-29T06:02:22.810Z,10.12
2019-03-29T06:04:53.732Z,10.16
2019-03-29T06:07:24.483Z,10.18
2019-03-29T06:09:55.429Z,10.20
2019-03-29T06:12:26.402Z,10.28
2019-03-29T06:14:57.323Z,10.31
2019-03-29T06:17:27.947Z,10.36
2019-03-29T06:19:58.767Z,10.42
2019-03-29T06:22:29.603Z,10.39
2019-03-29T06:25:00.445Z,10.34
2019-03-29T06:27:31.354Z,10.37
2019-03-29T06:30:02.090Z,10.42
2019-03-29T06:32:33.222Z,10.38
2019-03-29T06:35:06.471Z,10.49
2019-03-29T06:37:39.420Z,10.48
2019-03-29T06:40:13.450Z,10.56
2019-03-29T06:42:44.286Z,10.55
2019-03-29T06:45:15.223Z,10.64
2019-03-29T06:47:45.713Z,10.67
2019-03-29T06:50:16.465Z,10.66
2019-03-29T06:52:47.056Z,10.69
2019-03-29T06:55:18.265Z,10.70
2019-03-29T06:57:50.587Z,10.78
2019-03-29T07:00:22.836Z,10.77
2019-03-29T07:02:57.014Z,10.82
2019-03-29T07:05:27.857Z,10.74
2019-03-29T07:07:58.773Z,10.81
2019-03-29T07:10:29.311Z,10.96
2019-03-29T07:13:00.276Z,10.98
2019-03-29T07:15:32.196Z,10.88
2019-03-29T07:18:03.055Z,10.94
2019-03-29T07:20:33.920Z,10.91
2019-03-29T07:23:04.933Z,10.91
2019-03-29T07:25:57.249Z,10.98
2019-03-29T07:28:45.885Z,10.96
2019-03-29T07:31:16.817Z,11.00
2019-03-29T07:33:47.767Z,10.99
2019-03-29T07:36:21.333Z,11.02
2019-03-29T07:38:52.513Z,11.10
2019-03-29T07:41:31.765Z,11.10
2019-03-29T07:43:56.021Z,11.10
2019-03-29T07:46:27.975Z,11.08
2019-03-29T07:48:58.911Z,11.10
2019-03-29T07:51:29.871Z,11.18
2019-03-29T07:54:00.371Z,11.26
2019-03-29T07:56:31.082Z,11.22
2019-03-29T07:59:02.089Z,11.34
2019-03-29T08:01:32.885Z,11.58
2019-03-29T08:04:06.592Z,11.47
2019-03-29T08:06:41.594Z,11.56
2019-03-29T08:09:22.579Z,11.54
2019-03-29T08:11:55.116Z,11.60
2019-03-29T08:14:26.393Z,11.50
2019-03-29T08:16:57.256Z,11.64
2019-03-29T08:19:30.425Z,11.78
2019-03-29T08:22:01.297Z,11.78
2019-03-29T08:24:31.713Z,11.83
2019-03-29T08:27:02.516Z,11.68
2019-03-29T08:29:33.495Z,11.66
2019-03-29T08:32:06.255Z,11.86
2019-03-29T08:34:37.284Z,11.74
2019-03-29T08:37:08.155Z,11.64
2019-03-29T08:39:38.947Z,11.62
2019-03-29T08:42:09.456Z,11.85
2019-03-29T08:44:40.223Z,11.70
2019-03-29T08:47:11.051Z,11.80
2019-03-29T08:49:41.433Z,11.81
2019-03-29T08:52:12.459Z,11.83
2019-03-29T08:54:42.998Z,11.85
2019-03-29T08:57:15.325Z,11.84
2019-03-29T08:59:46.166Z,11.90
2019-03-29T09:02:16.999Z,11.98
2019-03-29T09:04:48.370Z,12.04
2019-03-29T09:07:19.167Z,12.12
2019-03-29T09:09:51.887Z,12.10
2019-03-29T09:12:22.899Z,12.14
2019-03-29T09:14:53.967Z,12.21
2019-03-29T09:17:24.573Z,12.18
2019-03-29T09:19:55.351Z,12.20
2019-03-29T09:22:26.065Z,12.22
2019-03-29T09:24:56.997Z,12.37
2019-03-29T09:27:27.940Z,12.09
2019-03-29T09:29:58.657Z,12.17
2019-03-29T09:32:29.573Z,12.08
2019-03-29T09:35:00.458Z,12.22
2019-03-29T09:37:32.969Z,12.02
2019-03-29T09:40:04.561Z,11.94
2019-03-29T09:42:35.463Z,12.08
2019-03-29T09:45:08.579Z,12.08
2019-03-29T09:47:40.697Z,12.24
2019-03-29T09:50:12.633Z,12.26
2019-03-29T09:52:43.666Z,12.19
2019-03-29T09:55:14.494Z,12.24
2019-03-29T09:57:45.628Z,12.18
2019-03-29T10:00:23.481Z,12.28
2019-03-29T10:02:54.233Z,12.25
2019-03-29T10:05:25.176Z,12.32
2019-03-29T10:07:55.951Z,12.38
2019-03-29T10:10:26.820Z,12.49
2019-03-29T10:12:57.286Z,12.50
2019-03-29T10:15:28.154Z,12.42
2019-03-29T10:17:59.050Z,12.62
2019-03-29T10:20:29.913Z,12.66
2019-03-29T10:23:00.967Z,12.67
2019-03-29T10:25:31.776Z,12.64
2019-03-29T10:28:02.688Z,12.64
2019-03-29T10:30:46.425Z,12.65
2019-03-29T10:33:16.189Z,12.76
2019-03-29T10:35:52.127Z,12.87
2019-03-29T10:38:19.460Z,13.08
2019-03-29T10:40:51.789Z,13.22
2019-03-29T10:43:22.626Z,13.38
2019-03-29T10:45:53.461Z,13.31
2019-03-29T10:48:24.298Z,13.51
2019-03-29T10:50:55.019Z,13.32
2019-03-29T10:53:28.576Z,13.37
2019-03-29T10:55:58.478Z,13.43
2019-03-29T10:58:29.791Z,13.50
2019-03-29T11:01:02.073Z,13.53
2019-03-29T11:03:32.783Z,13.63
2019-03-29T11:06:03.526Z,13.74
2019-03-29T11:08:34.374Z,13.70
2019-03-29T11:11:05.723Z,13.48
2019-03-29T11:13:36.482Z,13.46
2019-03-29T11:16:07.009Z,13.17
2019-03-29T11:18:39.602Z,13.25
2019-03-29T11:21:10.399Z,13.10
2019-03-29T11:23:41.442Z,13.09
2019-03-29T11:26:12.274Z,13.09
2019-03-29T11:28:43.111Z,13.14
2019-03-29T11:31:13.952Z,13.18
2019-03-29T11:33:44.780Z,13.08
2019-03-29T11:36:18.718Z,13.03
2019-03-29T11:38:51.044Z,13.06
2019-03-29T11:41:21.813Z,13.06
2019-03-29T11:43:52.826Z,13.02
2019-03-29T11:46:23.694Z,13.00
2019-03-29T11:48:54.594Z,13.17
2019-03-29T11:51:25.350Z,13.34
2019-03-29T11:53:56.237Z,13.36
2019-03-29T11:56:26.970Z,13.56
2019-03-29T11:58:59.399Z,13.58
2019-03-29T12:01:30.126Z,13.58
2019-03-29T12:04:01.020Z,13.64
2019-03-29T12:06:31.803Z,13.47
2019-03-29T12:09:02.678Z,13.39
2019-03-29T12:11:33.590Z,13.28
2019-03-29T12:14:05.234Z,13.30
2019-03-29T12:16:36.185Z,13.32
2019-03-29T12:19:07.122Z,13.34
2019-03-29T12:21:37.942Z,13.48
2019-03-29T12:24:08.412Z,13.41
2019-03-29T12:26:39.121Z,13.28
2019-03-29T12:29:10.161Z,13.31
2019-03-29T12:31:41.130Z,13.40
2019-03-29T12:34:11.670Z,13.18
2019-03-29T12:36:42.107Z,13.10
2019-03-29T12:39:12.982Z,13.05
2019-03-29T12:41:43.819Z,13.12
2019-03-29T12:44:17.525Z,13.26
2019-03-29T12:46:48.271Z,13.26
2019-03-29T12:49:19.275Z,13.42
2019-03-29T12:51:50.032Z,13.38
2019-03-29T12:54:20.867Z,13.30
2019-03-29T12:56:51.256Z,13.14
2019-03-29T12:59:22.097Z,13.19
2019-03-29T13:01:52.866Z,13.37
2019-03-29T13:04:23.604Z,13.58
2019-03-29T13:06:54.437Z,13.69
2019-03-29T13:09:25.389Z,13.74
2019-03-29T13:11:55.907Z,13.75
2019-03-29T13:14:26.743Z,13.68
2019-03-29T13:16:57.580Z,13.38
2019-03-29T13:19:29.940Z,13.45
2019-03-29T13:22:00.321Z,13.42
2019-03-29T13:24:31.239Z,13.36
2019-03-29T13:27:02.082Z,13.51
2019-03-29T13:29:32.560Z,13.48
2019-03-29T13:32:03.889Z,13.63
2019-03-29T13:34:34.787Z,13.66
2019-03-29T13:37:05.774Z,13.68
2019-03-29T13:39:36.657Z,13.83
2019-03-29T13:42:07.508Z,13.58
2019-03-29T13:44:38.392Z,13.74
2019-03-29T13:47:09.260Z,13.66
2019-03-29T13:49:40.112Z,13.65
2019-03-29T13:52:10.943Z,13.50
2019-03-29T13:54:41.780Z,13.46
2019-03-29T13:57:12.243Z,13.44
2019-03-29T13:59:43.012Z,13.42
2019-03-29T14:02:13.784Z,13.48
2019-03-29T14:04:44.507Z,13.49
2019-03-29T14:07:15.334Z,13.58
2019-03-29T14:09:46.212Z,13.54
2019-03-29T14:12:17.152Z,13.67
2019-03-29T14:14:47.950Z,13.82
2019-03-29T14:17:18.786Z,13.63
2019-03-29T14:19:49.640Z,13.63
2019-03-29T14:22:20.086Z,13.76
2019-03-29T14:24:53.896Z,13.82
2019-03-29T14:27:23.059Z,13.76
2019-03-29T14:30:04.361Z,13.91
2019-03-29T14:32:26.359Z,13.90
2019-03-29T14:34:56.851Z,13.53
2019-03-29T14:37:27.233Z,13.67
2019-03-29T14:39:57.960Z,13.68
2019-03-29T14:42:28.452Z,13.79
2019-03-29T14:44:59.310Z,13.70
2019-03-29T14:47:41.407Z,13.74
2019-03-29T14:50:02.855Z,13.74
2019-03-29T14:52:33.817Z,13.47
2019-03-29T14:55:06.956Z,13.58
2019-03-29T14:57:37.695Z,13.56
2019-03-29T15:00:10.493Z,13.45
2019-03-29T15:02:41.309Z,13.48
2019-03-29T15:05:12.349Z,13.58
2019-03-29T15:07:46.795Z,13.66
2019-03-29T15:10:25.899Z,13.60
2019-03-29T15:12:57.047Z,13.76
2019-03-29T15:15:27.980Z,13.70
2019-03-29T15:17:58.716Z,13.70
2019-03-29T15:20:29.566Z,13.66
2019-03-29T15:23:00.300Z,13.72
2019-03-29T15:25:31.144Z,13.78
2019-03-29T15:28:02.018Z,13.66
2019-03-29T15:30:32.903Z,13.56
2019-03-29T15:33:03.764Z,13.58
2019-03-29T15:35:34.800Z,13.49
2019-03-29T15:38:05.519Z,13.46
2019-03-29T15:40:35.942Z,13.18
2019-03-29T15:43:06.687Z,13.38
2019-03-29T15:45:37.535Z,13.42
2019-03-29T15:48:08.911Z,13.34
2019-03-29T15:50:40.733Z,13.43
2019-03-29T15:53:11.503Z,13.33
2019-03-29T15:55:41.915Z,13.40
2019-03-29T15:58:12.759Z,13.40
2019-03-29T16:00:43.659Z,13.47
2019-03-29T16:03:14.403Z,13.47
2019-03-29T16:05:48.284Z,13.28
2019-03-29T16:08:17.803Z,13.28
2019-03-29T16:10:48.673Z,13.28
2019-03-29T16:13:19.207Z,13.24
2019-03-29T16:15:50.165Z,13.30
2019-03-29T16:18:20.953Z,13.28
2019-03-29T16:20:51.922Z,13.30
2019-03-29T16:23:22.417Z,13.23
2019-03-29T16:25:53.160Z,13.11
2019-03-29T16:28:23.974Z,12.94
2019-03-29T16:30:54.926Z,13.02
2019-03-29T16:33:25.874Z,12.84
2019-03-29T16:35:56.762Z,12.99
2019-03-29T16:38:27.541Z,12.90
2019-03-29T16:40:58.478Z,12.91
2019-03-29T16:43:28.997Z,12.72
2019-03-29T16:46:01.504Z,12.84
2019-03-29T16:48:33.768Z,12.95
2019-03-29T16:51:04.590Z,12.94
2019-03-29T16:53:35.343Z,12.87
2019-03-29T16:56:05.926Z,12.86
2019-03-29T16:58:36.854Z,12.79
2019-03-29T17:01:07.845Z,12.74
2019-03-29T17:03:38.718Z,12.90
2019-03-29T17:06:11.359Z,12.66
2019-03-29T17:08:43.720Z,12.62
2019-03-29T17:11:14.596Z,12.60
2019-03-29T17:13:45.453Z,12.70
2019-03-29T17:16:29.473Z,12.57
2019-03-29T17:18:48.564Z,12.66
2019-03-29T17:21:19.446Z,12.68
2019-03-29T17:23:52.653Z,12.66
2019-03-29T17:26:22.905Z,12.65
2019-03-29T17:28:53.694Z,12.60
2019-03-29T17:31:24.522Z,12.56
2019-03-29T17:33:55.336Z,12.64
2019-03-29T17:36:26.170Z,12.64
2019-03-29T17:38:57.032Z,12.59
2019-03-29T17:41:27.918Z,12.62
2019-03-29T17:43:58.817Z,12.60
2019-03-29T17:46:29.696Z,12.67
2019-03-29T17:49:02.576Z,12.51
2019-03-29T17:51:33.514Z,12.50
2019-03-29T17:54:04.698Z,12.43
2019-03-29T17:56:35.494Z,12.49
2019-03-29T17:59:06.289Z,12.36
2019-03-29T18:01:39.270Z,12.44
2019-03-29T18:04:09.726Z,12.40
2019-03-29T18:06:40.596Z,12.29
2019-03-29T18:09:11.358Z,12.21
2019-03-29T18:11:42.284Z,12.32
2019-03-29T18:14:13.190Z,12.24
2019-03-29T18:16:44.036Z,12.21
2019-03-29T18:19:14.864Z,12.24
2019-03-29T18:21:45.751Z,12.25
2019-03-29T18:24:16.706Z,12.32
2019-03-29T18:26:47.528Z,12.21
2019-03-29T18:29:18.294Z,12.20
2019-03-29T18:31:49.027Z,12.10
2019-03-29T18:34:19.896Z,12.09
2019-03-29T18:36:52.078Z,12.02
2019-03-29T18:39:22.959Z,11.94
2019-03-29T18:41:53.888Z,11.94
2019-03-29T18:44:24.767Z,12.00
2019-03-29T18:46:55.567Z,11.93
2019-03-29T18:49:29.248Z,11.84
2019-03-29T18:52:00.039Z,11.86
2019-03-29T18:54:31.234Z,11.84
2019-03-29T18:57:02.106Z,11.78
2019-03-29T18:59:36.086Z,11.70
2019-03-29T19:02:07.072Z,11.73
2019-03-29T19:04:37.882Z,11.65
2019-03-29T19:07:08.647Z,11.64
2019-03-29T19:09:39.080Z,11.66
2019-03-29T19:12:09.914Z,11.62
2019-03-29T19:14:41.776Z,11.63
2019-03-29T19:17:12.793Z,11.60
2019-03-29T19:19:43.517Z,11.62
2019-03-29T19:22:14.444Z,11.54
2019-03-29T19:24:45.303Z,11.54
2019-03-29T19:27:16.346Z,11.54
2019-03-29T19:29:47.268Z,11.51
2019-03-29T19:32:17.729Z,11.48
2019-03-29T19:34:48.431Z,11.42
2019-03-29T19:37:19.171Z,11.36
2019-03-29T19:39:49.953Z,11.36
2019-03-29T19:42:20.740Z,11.37
2019-03-29T19:44:51.479Z,11.32
2019-03-29T19:47:22.409Z,11.30
2019-03-29T19:49:55.297Z,11.30
2019-03-29T19:52:25.837Z,11.26
2019-03-29T19:55:01.181Z,11.28
2019-03-29T19:57:30.806Z,11.28
2019-03-29T20:00:01.639Z,11.21
2019-03-29T20:02:32.635Z,11.20
2019-03-29T20:05:03.155Z,11.17
2019-03-29T20:07:35.481Z,11.17
2019-03-29T20:10:07.659Z,11.10
2019-03-29T20:12:38.476Z,11.06
2019-03-29T20:15:09.419Z,11.03
2019-03-29T20:17:40.264Z,11.03
2019-03-29T20:20:14.395Z,10.98
2019-03-29T20:22:45.209Z,10.98
2019-03-29T20:25:15.832Z,11.00
2019-03-29T20:27:46.337Z,10.96
2019-03-29T20:30:17.227Z,10.96
2019-03-29T20:32:48.348Z,10.98
2019-03-29T20:35:31.750Z,10.92
2019-03-29T20:38:04.155Z,10.86
2019-03-29T20:40:34.981Z,10.82
2019-03-29T20:43:09.004Z,10.77
2019-03-29T20:45:39.087Z,10.82
2019-03-29T20:48:11.602Z,10.71
2019-03-29T20:50:42.419Z,10.71
2019-03-29T20:53:12.912Z,10.70
2019-03-29T20:55:43.873Z,10.68
2019-03-29T20:58:14.704Z,10.64
2019-03-29T21:00:45.219Z,10.64
2019-03-29T21:03:15.966Z,10.64
2019-03-29T21:05:46.808Z,10.60
2019-03-29T21:08:17.743Z,10.64
2019-03-29T21:10:56.080Z,10.54
2019-03-29T21:13:25.723Z,10.56
2019-03-29T21:15:56.675Z,10.52
2019-03-29T21:18:38.891Z,10.52
2019-03-29T21:21:09.687Z,10.48
2019-03-29T21:23:40.537Z,10.46
2019-03-29T21:26:11.346Z,10.50
2019-03-29T21:28:41.927Z,10.44
2019-03-29T21:31:14.507Z,10.38
2019-03-29T21:33:45.975Z,10.42
2019-03-29T21:36:18.159Z,10.38
2019-03-29T21:38:48.995Z,10.34
2019-03-29T21:41:24.218Z,10.32
2019-03-29T21:43:55.311Z,10.30
2019-03-29T21:46:28.771Z,10.34
2019-03-29T21:49:00.273Z,10.28
2019-03-29T21:51:31.663Z,10.20
2019-03-29T21:54:02.575Z,10.19
2019-03-29T21:56:34.833Z,10.14
2019-03-29T21:59:08.812Z,10.17
2019-03-29T22:01:39.763Z,10.22
2019-03-29T22:04:12.357Z,10.19
2019-03-29T22:06:43.507Z,10.16
2019-03-29T22:09:14.301Z,10.08
2019-03-29T22:11:47.910Z,10.15
2019-03-29T22:14:18.735Z,10.17
2019-03-29T22:16:49.733Z,10.06
2019-03-29T22:19:20.811Z,9.99
2019-03-29T22:21:51.665Z,9.98
2019-03-29T22:24:22.596Z,10.00
2019-03-29T22:26:53.481Z,10.02
2019-03-29T22:29:24.409Z,9.91
2019-03-29T22:31:54.987Z,9.95
2019-03-29T22:34:27.480Z,9.92
2019-03-29T22:37:03.040Z,9.85
2019-03-29T22:39:33.965Z,9.86
2019-03-29T22:42:06.410Z,9.78
2019-03-29T22:44:38.413Z,9.77
2019-03-29T22:47:09.251Z,9.79
2019-03-29T22:49:40.078Z,9.66
2019-03-29T22:52:11.041Z,9.65
2019-03-29T22:54:41.925Z,9.68
2019-03-29T22:57:12.886Z,9.68
2019-03-29T22:59:43.769Z,9.64
2019-03-29T23:02:16.359Z,9.58
2019-03-29T23:04:47.207Z,9.59
2019-03-29T23:07:18.101Z,9.68
2019-03-29T23:09:48.938Z,9.56
2019-03-29T23:12:19.754Z,9.53
2019-03-29T23:14:50.507Z,9.49
2019-03-29T23:17:21.341Z,9.52
2019-03-29T23:19:52.214Z,9.54
2019-03-29T23:22:24.159Z,9.42
2019-03-29T23:24:54.972Z,9.44
2019-03-29T23:27:25.922Z,9.42
2019-03-29T23:29:56.889Z,9.41
2019-03-29T23:32:27.615Z,9.43
2019-03-29T23:34:58.556Z,9.44
2019-03-29T23:37:29.090Z,9.41
2019-03-29T23:40:01.184Z,9.40
2019-03-29T23:42:32.030Z,9.40
2019-03-29T23:45:06.392Z,9.32
2019-03-29T23:47:40.951Z,9.40
2019-03-29T23:50:12.121Z,9.28
2019-03-29T23:52:43.971Z,9.34
2019-03-29T23:55:18.023Z,9.34
2019-03-29T23:57:52.016Z,9.32
